Accueil
Images satellite Prévisions 15 joursClimatMétéo marine Cyclones Foudre AéroportsFAQ Actualités A propos
Météo : Europe Afrique Amérique du Nord Amérique du Sud Asie Australie-Océanie Autres
Langues Contact

Carcassonne, France

Salvaza

latitude: 43-13N, longitude: 002-19E, altitude: 130 m


METAR: LFMK 181030Z AUTO 29015KT 250V310 9999 NSC 17/07 Q1014
short-TAF: périmé (5282 heures)
long-TAF: LFMK 180500Z 1806/1906 28009KT 9999 NSC TEMPO 1809/1906 26015G25KT

Heure: 12:34 (10:34 UTC)

Observation

Le bulletin a été fait il y a 4 minutes, à 10:30 UTC  
Vent 15 kt de ouest/nord-ouest, variant entre ouest/sud-ouest et nord-ouest
Température 17°C
Humidité 52%
Pression 1014 hPa
Visibilité 10 km ou plus

Changer d'unités

Prévision

Le bulletin a été fait il y a 5 heures et 19 minutes, à 05:15 UTC  
Prévision valable du 18 à 06 UTC au 19 à 06 UTC
Vent 09 kt de ouest
Visibilité 10 km ou plus
Temporairement
du 18 à 09 UTC au 19 à 06 UTC
Vent 15 kt de ouest avec des rafales jusqu'à 25 kt
Les informations qui figurent sur ce site font l'objet d'une clause de non-responsabilité
Météo : Europe Afrique Amérique du Nord Amérique du Sud Asie Australie-Océanie Autres
Images satellite Prévisions 15 joursClimatMétéo marine Cyclones Foudre AéroportsFAQ Langues Contact Actualités A propos